Time;durP1;ratioP1;P1;durP2;ratioP2;P2;SDS_P1;SDS_P2;PMS_P1;PMS_P2;Temp;Humidity;BMP_temperature;BMP_pressure;BME280_temperature;BME280_humidity;BME280_pressure;Samples;Min_cycle;Max_cycle;Signal;HPM_P1;HPM_P2
2023/05/28 00:01:08;;;;;;;14.27;10.05;;;;;;;13.48;71.41;101828.16;5059574;28;20067;-84
2023/05/28 00:03:35;;;;;;;17.42;11.38;;;;;;;13.40;72.16;101823.16;5063548;28;20017;-84
2023/05/28 00:06:02;;;;;;;17.55;11.15;;;;;;;13.37;72.90;101823.28;5045876;28;20020;-84
2023/05/28 00:08:27;;;;;;;14.70;10.85;;;;;;;13.36;72.62;101821.56;5043785;28;20418;-84
2023/05/28 00:10:59;;;;;;;16.27;11.07;;;;;;;13.25;73.11;101827.44;5061334;28;20107;-84
2023/05/28 00:13:28;;;;;;;15.13;10.18;;;;;;;13.24;72.99;101827.47;5060570;28;20083;-84
2023/05/28 00:15:53;;;;;;;15.63;10.10;;;;;;;13.03;74.48;101815.94;5055512;28;20033;-84
2023/05/28 00:18:19;;;;;;;13.20;9.63;;;;;;;12.90;75.30;101813.81;5063449;28;20269;-84
2023/05/28 00:20:45;;;;;;;15.95;9.63;;;;;;;12.90;75.51;101808.47;5039804;28;20576;-84
2023/05/28 00:23:11;;;;;;;15.90;10.77;;;;;;;12.84;76.08;101816.78;5045315;28;20038;-85
2023/05/28 00:25:36;;;;;;;16.70;9.82;;;;;;;12.86;76.16;101809.53;5043396;28;20085;-85
2023/05/28 00:28:02;;;;;;;15.27;10.18;;;;;;;12.84;76.14;101814.09;5041484;28;20529;-83
2023/05/28 00:30:29;;;;;;;15.95;10.38;;;;;;;12.68;76.29;101794.34;5060112;28;20267;-85
2023/05/28 00:32:55;;;;;;;15.85;10.75;;;;;;;12.83;75.94;101819.50;5059349;28;20054;-84
2023/05/28 00:35:20;;;;;;;17.98;11.25;;;;;;;12.81;76.29;101816.03;5039635;28;20032;-84
2023/05/28 00:37:45;;;;;;;15.85;10.60;;;;;;;12.77;76.06;101812.63;5038978;28;20028;-85
2023/05/28 00:40:11;;;;;;;16.67;11.00;;;;;;;12.70;76.69;101800.47;5058101;28;20111;-86
2023/05/28 00:42:36;;;;;;;17.33;11.02;;;;;;;12.63;76.51;101809.72;5059072;28;20047;-85
2023/05/28 00:45:03;;;;;;;16.30;10.70;;;;;;;12.65;76.69;101798.00;5059195;28;20131;-85
2023/05/28 00:47:28;;;;;;;17.75;11.27;;;;;;;12.53;77.34;101795.88;5040940;28;20047;-85
2023/05/28 00:49:55;;;;;;;18.88;12.18;;;;;;;12.57;76.94;101805.50;5058710;28;20044;-84
2023/05/28 00:52:21;;;;;;;16.92;11.98;;;;;;;12.57;77.43;101796.63;5038961;28;20074;-85
2023/05/28 00:54:47;;;;;;;16.65;11.40;;;;;;;12.54;77.47;101796.75;5060332;28;20423;-86
2023/05/28 00:57:14;;;;;;;17.55;11.73;;;;;;;12.37;77.82;101782.34;5036564;28;20024;-86
2023/05/28 00:59:41;;;;;;;18.30;12.35;;;;;;;12.45;78.65;101803.34;5046040;28;20360;-85
2023/05/28 01:02:06;;;;;;;17.08;12.18;;;;;;;12.42;78.18;101795.50;5062186;28;20421;-86
2023/05/28 01:04:32;;;;;;;19.60;13.13;;;;;;;12.28;78.52;101804.09;5065174;28;20100;-85
2023/05/28 01:06:59;;;;;;;19.05;12.60;;;;;;;12.29;78.53;101800.50;5044233;28;20035;-84
2023/05/28 01:09:25;;;;;;;17.77;12.73;;;;;;;12.28;78.41;101803.22;5064202;28;20036;-85
2023/05/28 01:11:53;;;;;;;18.10;12.85;;;;;;;12.21;78.75;101803.50;5065309;28;20024;-84
2023/05/28 01:14:20;;;;;;;17.83;12.80;;;;;;;12.20;78.92;101809.75;5045424;28;20542;-85
2023/05/28 01:16:48;;;;;;;21.95;13.25;;;;;;;12.15;79.08;101798.41;5065643;28;20028;-85
2023/05/28 01:19:16;;;;;;;17.95;13.02;;;;;;;12.14;79.56;101794.00;5065535;28;20016;-84
2023/05/28 01:21:44;;;;;;;22.70;13.38;;;;;;;12.19;79.31;101804.47;5051017;28;20100;-84
2023/05/28 01:24:13;;;;;;;20.85;14.07;;;;;;;12.24;78.95;101797.13;5050813;28;20175;-84
2023/05/28 01:26:40;;;;;;;18.25;14.95;;;;;;;12.14;78.86;101794.00;5073200;28;21616;-85
2023/05/28 01:29:16;;;;;;;26.08;16.35;;;;;;;12.14;78.68;101793.13;5056593;28;20120;-83
2023/05/28 01:31:43;;;;;;;27.08;17.40;;;;;;;12.01;80.01;101799.94;5060553;28;20099;-83
2023/05/28 01:34:10;;;;;;;25.15;16.85;;;;;;;11.92;80.48;101802.03;5064689;28;21001;-82
2023/05/28 01:36:38;;;;;;;26.23;16.65;;;;;;;11.84;81.07;101796.16;5063857;28;20028;-85
2023/05/28 01:39:05;;;;;;;27.63;17.70;;;;;;;11.77;81.05;101785.75;5055903;28;20055;-85
2023/05/28 01:41:31;;;;;;;25.25;16.80;;;;;;;11.86;81.68;101802.28;5074576;28;20036;-85
2023/05/28 01:43:58;;;;;;;27.95;17.73;;;;;;;11.75;81.69;101803.66;5061981;28;20028;-85
2023/05/28 01:46:24;;;;;;;25.80;17.10;;;;;;;11.70;81.99;101803.78;5067827;28;20106;-85
2023/05/28 01:48:50;;;;;;;26.30;16.88;;;;;;;11.67;82.15;101793.28;5060612;28;20112;-86
2023/05/28 01:51:16;;;;;;;23.98;16.85;;;;;;;11.79;82.00;101802.56;5046223;28;20103;-84
2023/05/28 01:53:42;;;;;;;21.83;15.20;;;;;;;11.65;82.32;101809.31;5043831;28;20067;-85
2023/05/28 01:56:07;;;;;;;23.95;16.05;;;;;;;11.61;82.60;101805.03;5064127;28;20676;-85
2023/05/28 01:58:34;;;;;;;21.40;15.60;;;;;;;11.54;82.94;101790.22;5060654;28;20016;-85
2023/05/28 02:01:15;;;;;;;19.58;14.45;;;;;;;11.52;83.23;101813.41;5061840;28;20033;-84
2023/05/28 02:03:41;;;;;;;24.17;14.98;;;;;;;11.52;83.61;101804.53;5055284;28;20024;-85
2023/05/28 02:06:06;;;;;;;21.73;13.82;;;;;;;11.37;83.73;101798.91;5062941;28;20020;-85
2023/05/28 02:08:31;;;;;;;20.67;13.57;;;;;;;11.45;83.91;101804.81;5043789;28;20106;-85
2023/05/28 02:10:57;;;;;;;20.05;13.18;;;;;;;11.39;84.06;101794.34;5059967;28;20397;-85
2023/05/28 02:13:22;;;;;;;21.92;13.93;;;;;;;11.33;84.28;101786.63;5042898;28;20048;-86
2023/05/28 02:15:47;;;;;;;20.55;13.63;;;;;;;11.39;84.51;101801.50;5059613;28;20055;-86
2023/05/28 02:18:13;;;;;;;21.95;13.40;;;;;;;11.47;84.09;101796.72;5042515;28;20042;-85
2023/05/28 02:20:38;;;;;;;19.40;13.23;;;;;;;11.37;84.67;101800.66;5058196;28;20033;-86
2023/05/28 02:23:04;;;;;;;18.60;12.75;;;;;;;11.42;84.71;101794.25;5062917;28;20082;-85
2023/05/28 02:25:29;;;;;;;23.77;14.50;;;;;;;11.46;84.74;101793.19;5041589;28;20112;-85
2023/05/28 02:27:55;;;;;;;16.35;12.07;;;;;;;11.43;84.47;101782.66;5043646;28;20115;-85
2023/05/28 02:30:20;;;;;;;19.65;12.73;;;;;;;11.33;84.59;101781.28;5040516;28;20416;-86
2023/05/28 02:32:45;;;;;;;16.98;12.25;;;;;;;11.27;84.95;101781.50;5057373;28;20047;-84
2023/05/28 02:35:12;;;;;;;18.77;12.10;;;;;;;11.40;84.35;101782.75;5059613;28;20107;-84
2023/05/28 02:37:38;;;;;;;19.55;13.05;;;;;;;11.21;85.32;101782.63;5061782;28;20321;-85
2023/05/28 02:40:05;;;;;;;18.98;13.20;;;;;;;11.31;84.99;101783.13;5059312;28;20056;-86
2023/05/28 02:42:30;;;;;;;21.02;13.43;;;;;;;11.26;85.32;101774.44;5059154;28;20016;-85
2023/05/28 02:44:56;;;;;;;18.90;12.57;;;;;;;11.20;85.54;101772.91;5062540;28;20070;-85
2023/05/28 02:47:21;;;;;;;21.30;12.40;;;;;;;11.25;84.88;101778.06;5063778;28;20044;-85
2023/05/28 02:49:46;;;;;;;17.63;12.43;;;;;;;11.19;85.44;101780.94;5062387;28;20032;-85
2023/05/28 02:52:12;;;;;;;19.33;13.13;;;;;;;11.22;85.03;101779.03;5043408;28;20039;-85
2023/05/28 02:54:37;;;;;;;19.33;12.85;;;;;;;11.21;85.41;101779.09;5061014;28;20612;-86
2023/05/28 02:57:03;;;;;;;17.35;12.20;;;;;;;11.18;85.45;101777.41;5056518;28;20024;-85
2023/05/28 02:59:28;;;;;;;15.15;12.20;;;;;;;11.19;85.17;101786.25;5060312;28;20031;-85
2023/05/28 03:01:53;;;;;;;17.45;12.32;;;;;;;10.91;86.12;101779.34;5040818;28;20446;-84
2023/05/28 03:04:19;;;;;;;21.30;12.30;;;;;;;10.92;86.77;101790.84;5059526;28;20046;-84
2023/05/28 03:06:44;;;;;;;17.70;11.52;;;;;;;10.83;87.30;101792.06;5060319;28;20385;-84
2023/05/28 03:09:09;;;;;;;19.35;12.50;;;;;;;10.72;87.77;101779.13;5040367;28;20028;-84
2023/05/28 03:11:35;;;;;;;18.35;12.38;;;;;;;10.82;87.47;101794.75;5059806;28;20025;-83
2023/05/28 03:14:00;;;;;;;19.52;12.70;;;;;;;10.82;87.37;101792.09;5057617;28;20106;-84
2023/05/28 03:16:25;;;;;;;17.33;12.45;;;;;;;10.68;88.26;101787.28;5042378;28;20512;-84
2023/05/28 03:18:51;;;;;;;16.92;12.15;;;;;;;10.59;88.41;101790.28;5063247;28;20028;-85
2023/05/28 03:21:16;;;;;;;17.73;12.10;;;;;;;10.54;88.81;101786.94;5061256;28;20032;-84
2023/05/28 03:23:42;;;;;;;14.48;11.55;;;;;;;10.59;88.77;101790.28;5063038;28;20036;-82
2023/05/28 03:26:07;;;;;;;17.13;12.13;;;;;;;10.48;89.35;101791.53;5045496;28;20094;-84
2023/05/28 03:28:32;;;;;;;16.52;11.77;;;;;;;10.59;88.88;101793.81;5057916;28;20024;-85
2023/05/28 03:30:58;;;;;;;19.45;11.95;;;;;;;10.50;89.41;101783.50;5061148;28;20024;-85
2023/05/28 03:33:23;;;;;;;16.60;11.88;;;;;;;10.51;89.14;101779.03;5063630;28;20077;-85
2023/05/28 03:35:49;;;;;;;15.30;11.20;;;;;;;10.54;88.81;101787.78;5061463;28;20024;-85
2023/05/28 03:38:14;;;;;;;16.65;11.70;;;;;;;10.59;89.07;101791.16;5064659;28;20032;-84
2023/05/28 03:40:40;;;;;;;17.75;12.23;;;;;;;10.64;88.92;101788.31;5061958;28;20029;-82
2023/05/28 03:43:07;;;;;;;15.98;11.90;;;;;;;10.64;89.01;101791.84;5061311;28;20031;-85
2023/05/28 03:45:32;;;;;;;14.90;10.88;;;;;;;10.62;89.04;101780.41;5059436;28;20021;-85
2023/05/28 03:47:58;;;;;;;17.90;11.60;;;;;;;10.58;88.44;101785.91;5059302;28;20454;-85
2023/05/28 03:50:24;;;;;;;17.10;11.25;;;;;;;10.60;88.75;101794.69;5063133;28;20028;-85
2023/05/28 03:52:50;;;;;;;18.70;11.52;;;;;;;10.62;88.85;101798.19;5059892;28;20036;-84
2023/05/28 03:55:16;;;;;;;16.20;10.70;;;;;;;10.57;89.01;101794.78;5056800;28;20453;-85
2023/05/28 03:57:41;;;;;;;17.65;10.90;;;;;;;10.59;89.22;101803.59;5058494;28;20024;-85
2023/05/28 04:00:08;;;;;;;18.25;11.35;;;;;;;10.53;89.35;101809.13;5057997;28;20084;-85
2023/05/28 04:02:34;;;;;;;14.40;11.07;;;;;;;10.57;89.20;101810.75;5059257;28;20032;-85
2023/05/28 04:05:00;;;;;;;17.10;11.52;;;;;;;10.57;89.67;101813.41;5040911;28;20017;-85
2023/05/28 04:07:25;;;;;;;18.83;11.65;;;;;;;10.43;90.07;101798.81;5048393;28;20052;-84
2023/05/28 04:09:51;;;;;;;18.55;11.15;;;;;;;10.47;90.04;101805.75;5049738;28;20050;-84
2023/05/28 04:12:16;;;;;;;19.20;11.75;;;;;;;10.38;90.23;101811.41;5064400;28;20036;-85
2023/05/28 04:14:42;;;;;;;19.58;11.85;;;;;;;10.35;90.66;101807.97;5064056;28;20052;-85
2023/05/28 04:17:08;;;;;;;14.15;10.93;;;;;;;10.36;91.04;101807.06;5064611;28;20017;-84
2023/05/28 04:19:33;;;;;;;14.98;11.45;;;;;;;10.33;91.01;101801.84;5061436;28;20044;-85
2023/05/28 04:21:59;;;;;;;17.95;11.98;;;;;;;10.44;90.72;101803.19;5059769;28;20029;-84
2023/05/28 04:24:24;;;;;;;17.67;11.88;;;;;;;10.45;90.66;101806.75;5054837;28;20385;-84
2023/05/28 04:26:51;;;;;;;13.73;11.20;;;;;;;10.41;91.03;101806.00;5051589;28;20025;-84
2023/05/28 04:29:17;;;;;;;16.67;10.90;;;;;;;10.50;90.74;101811.91;5058347;28;20036;-84
2023/05/28 04:31:43;;;;;;;16.65;11.77;;;;;;;10.54;90.71;101817.06;5045252;28;20550;-85
2023/05/28 04:34:09;;;;;;;17.40;12.18;;;;;;;10.62;90.42;101806.16;5054365;28;20025;-84
2023/05/28 04:36:36;;;;;;;16.90;11.60;;;;;;;10.66;90.11;101810.44;5049840;28;20041;-85
2023/05/28 04:39:04;;;;;;;15.32;11.70;;;;;;;10.68;90.45;101812.13;5053542;28;20036;-84
2023/05/28 04:41:30;;;;;;;18.40;11.82;;;;;;;10.65;90.57;101814.00;5040222;28;20032;-84
2023/05/28 04:43:56;;;;;;;17.80;11.40;;;;;;;10.67;90.49;101812.19;5055099;28;20642;-84
2023/05/28 04:46:25;;;;;;;15.68;11.23;;;;;;;10.79;90.48;101817.06;5037170;28;20036;-83
2023/05/28 04:48:51;;;;;;;16.83;11.38;;;;;;;10.77;90.28;101816.25;5038700;28;20041;-83
2023/05/28 04:51:18;;;;;;;20.17;11.82;;;;;;;10.95;90.08;101820.91;5058502;28;20028;-84
2023/05/28 04:53:43;;;;;;;19.40;12.55;;;;;;;10.88;90.22;101827.38;5036101;28;20230;-84
2023/05/28 04:56:10;;;;;;;21.05;12.85;;;;;;;10.92;90.26;101829.00;5054226;28;20032;-84
2023/05/28 04:58:35;;;;;;;17.92;12.07;;;;;;;11.01;89.80;101826.94;5056625;28;20081;-81
2023/05/28 05:01:00;;;;;;;17.88;12.38;;;;;;;11.04;89.76;101827.69;5055782;28;20029;-84
2023/05/28 05:03:26;;;;;;;18.52;12.13;;;;;;;11.09;89.83;101827.53;5056253;28;20585;-83
2023/05/28 05:05:51;;;;;;;18.45;11.60;;;;;;;11.18;89.49;101824.50;5043760;28;20136;-84
2023/05/28 05:08:16;;;;;;;19.45;12.85;;;;;;;11.35;89.65;101829.19;5059267;28;20052;-85
2023/05/28 05:10:42;;;;;;;19.05;12.30;;;;;;;11.38;88.62;101826.41;5059352;28;20028;-83
2023/05/28 05:13:07;;;;;;;17.30;11.65;;;;;;;11.46;88.95;101822.53;5059948;28;20083;-84
2023/05/28 05:15:33;;;;;;;18.45;12.50;;;;;;;11.53;89.44;101825.81;5059667;28;20036;-84
2023/05/28 05:17:58;;;;;;;18.45;12.70;;;;;;;11.61;88.69;101813.03;5060843;28;20169;-84
2023/05/28 05:20:24;;;;;;;16.63;11.73;;;;;;;11.76;88.81;101821.38;5060357;28;20067;-84
2023/05/28 05:22:50;;;;;;;21.42;12.38;;;;;;;11.92;88.24;101819.84;5059871;28;20024;-84
2023/05/28 05:25:15;;;;;;;20.00;12.00;;;;;;;11.98;87.79;101824.06;5059728;28;20406;-84
2023/05/28 05:27:41;;;;;;;17.08;11.40;;;;;;;12.12;87.37;101829.69;5043698;28;20040;-84
2023/05/28 05:30:08;;;;;;;18.88;12.38;;;;;;;12.18;86.82;101824.97;5066618;28;20417;-84
2023/05/28 05:32:33;;;;;;;19.73;12.07;;;;;;;12.29;86.85;101834.31;5043386;28;20033;-81
2023/05/28 05:34:58;;;;;;;17.08;11.60;;;;;;;12.42;85.79;101836.41;5038292;28;20377;-84
2023/05/28 05:37:24;;;;;;;18.95;12.70;;;;;;;12.50;85.46;101833.44;5042845;28;20024;-85
2023/05/28 05:39:49;;;;;;;18.25;12.05;;;;;;;12.65;84.91;101837.22;5039899;28;20028;-84
2023/05/28 05:42:14;;;;;;;18.40;11.45;;;;;;;12.75;85.36;101826.97;5056073;28;20047;-84
2023/05/28 05:44:40;;;;;;;23.30;11.65;;;;;;;12.88;84.53;101838.88;5058066;28;20033;-85
2023/05/28 05:47:05;;;;;;;18.40;12.07;;;;;;;12.92;83.88;101828.00;5060210;28;20095;-85
2023/05/28 05:49:31;;;;;;;19.60;11.88;;;;;;;13.08;83.36;101838.81;5067781;28;20063;-83
2023/05/28 05:51:56;;;;;;;16.83;12.15;;;;;;;13.15;83.38;101842.09;5047570;28;20063;-84
2023/05/28 05:54:21;;;;;;;18.30;12.23;;;;;;;13.36;83.59;101842.94;5067238;28;20341;-84
2023/05/28 05:56:47;;;;;;;17.10;12.32;;;;;;;13.55;81.84;101848.31;5060252;28;20036;-85
2023/05/28 05:59:12;;;;;;;19.10;12.30;;;;;;;13.63;80.97;101841.66;5065018;28;20046;-85
2023/05/28 06:01:38;;;;;;;19.00;11.88;;;;;;;13.93;80.43;101843.78;5046146;28;20088;-85
2023/05/28 06:04:03;;;;;;;19.95;13.05;;;;;;;14.03;79.18;101844.19;5062687;28;20556;-86
2023/05/28 06:06:28;;;;;;;17.88;11.07;;;;;;;14.32;78.96;101845.44;5064350;28;20016;-85
2023/05/28 06:08:54;;;;;;;19.42;12.27;;;;;;;14.39;77.69;101833.47;5065380;28;20033;-86
2023/05/28 06:11:20;;;;;;;17.92;11.55;;;;;;;14.51;76.29;101842.72;5063521;28;20115;-86
2023/05/28 06:13:45;;;;;;;15.18;11.57;;;;;;;14.69;76.32;101839.06;5060201;28;20670;-85
2023/05/28 06:16:11;;;;;;;17.25;12.50;;;;;;;14.89;76.00;101857.66;5063405;28;20034;-85
2023/05/28 06:18:36;;;;;;;18.45;12.52;;;;;;;14.95;74.74;101851.97;5058211;28;20035;-85
2023/05/28 06:21:03;;;;;;;16.42;11.13;;;;;;;15.01;74.41;101849.94;5063494;28;20033;-85
2023/05/28 06:23:29;;;;;;;16.27;12.02;;;;;;;15.23;74.50;101855.84;5041363;28;20031;-86
2023/05/28 06:25:54;;;;;;;20.50;11.18;;;;;;;15.41;73.76;101848.59;5059206;28;20119;-85
2023/05/28 06:28:19;;;;;;;18.55;11.68;;;;;;;15.56;74.63;101854.97;5060503;28;20140;-85
2023/05/28 06:30:45;;;;;;;16.08;11.52;;;;;;;15.80;72.87;101847.34;5040616;28;20499;-86
2023/05/28 06:33:10;;;;;;;17.88;11.32;;;;;;;15.90;72.17;101852.13;5037944;28;20024;-85
2023/05/28 06:35:36;;;;;;;15.15;10.93;;;;;;;15.91;71.30;101853.84;5061933;28;20031;-86
2023/05/28 06:38:01;;;;;;;17.80;11.07;;;;;;;15.90;71.93;101846.75;5041083;28;20035;-86
2023/05/28 06:40:27;;;;;;;17.65;11.38;;;;;;;16.00;71.67;101833.66;5062279;28;20098;-84
2023/05/28 06:42:52;;;;;;;15.32;10.48;;;;;;;16.18;70.09;101843.34;5057459;28;20111;-82
2023/05/28 06:45:18;;;;;;;18.83;11.15;;;;;;;16.52;68.93;101845.84;5063235;28;20059;-85
2023/05/28 06:47:44;;;;;;;41.95;13.48;;;;;;;16.73;67.65;101843.72;5060192;28;20028;-84
2023/05/28 06:50:10;;;;;;;22.48;10.50;;;;;;;16.94;66.33;101839.72;5043502;28;20027;-85
2023/05/28 06:52:35;;;;;;;13.77;10.27;;;;;;;17.01;65.68;101846.44;5045693;28;20076;-83
2023/05/28 06:55:01;;;;;;;14.98;10.07;;;;;;;17.14;63.61;101842.03;5070576;28;20032;-84
2023/05/28 06:57:26;;;;;;;16.33;9.98;;;;;;;17.16;62.99;101834.72;5065548;28;20020;-85
2023/05/28 06:59:51;;;;;;;17.98;10.18;;;;;;;17.47;63.84;101845.38;5068338;28;20024;-85
2023/05/28 07:02:17;;;;;;;16.98;9.63;;;;;;;17.71;62.86;101846.47;5061742;28;20027;-86
2023/05/28 07:04:43;;;;;;;14.55;9.43;;;;;;;17.72;61.17;101831.19;5057747;28;20505;-85
2023/05/28 07:07:09;;;;;;;15.85;9.63;;;;;;;17.88;61.15;101843.56;5067399;28;20020;-84
2023/05/28 07:09:35;;;;;;;18.30;8.88;;;;;;;18.06;60.40;101837.97;5064303;28;20362;-85
2023/05/28 07:12:01;;;;;;;14.88;8.80;;;;;;;18.34;60.28;101839.66;5067296;28;20557;-88
2023/05/28 07:14:26;;;;;;;11.48;8.20;;;;;;;18.50;59.23;101843.03;5065929;28;20032;-84
2023/05/28 07:16:52;;;;;;;14.80;8.25;;;;;;;18.63;57.27;101848.44;5042638;28;20044;-87
2023/05/28 07:19:17;;;;;;;12.90;8.57;;;;;;;18.82;56.53;101857.03;5059044;28;20032;-86
2023/05/28 07:21:45;;;;;;;12.93;8.60;;;;;;;18.95;55.88;101856.19;5061673;28;20032;-84
2023/05/28 07:24:10;;;;;;;13.07;8.55;;;;;;;19.19;55.65;101856.25;5059329;28;20055;-85
2023/05/28 07:26:35;;;;;;;11.98;8.05;;;;;;;19.58;55.43;101841.75;5060392;28;20024;-86
2023/05/28 07:29:01;;;;;;;13.52;8.15;;;;;;;20.01;54.77;101838.59;5060682;28;20115;-85
2023/05/28 07:31:28;;;;;;;13.23;7.88;;;;;;;20.52;52.55;101847.31;5061300;28;20536;-86
2023/05/28 07:33:53;;;;;;;11.73;7.30;;;;;;;21.04;51.83;101854.06;5061416;28;20059;-85
2023/05/28 07:36:19;;;;;;;10.98;6.60;;;;;;;21.50;49.98;101854.97;5056731;28;20025;-86
2023/05/28 07:38:44;;;;;;;13.52;6.60;;;;;;;21.87;47.70;101861.81;5062290;28;20025;-86
2023/05/28 07:41:10;;;;;;;307.00;32.63;;;;;;;22.06;46.12;101844.00;5061414;28;20024;-86
2023/05/28 07:43:35;;;;;;;19.88;7.07;;;;;;;22.22;45.35;101844.47;5063312;28;20510;-86
2023/05/28 07:46:00;;;;;;;56.38;9.68;;;;;;;22.51;45.27;101860.13;5063637;28;20097;-85
2023/05/28 07:48:26;;;;;;;12.05;5.80;;;;;;;23.15;44.69;101857.28;5045537;28;20024;-86
2023/05/28 07:50:53;;;;;;;8.50;6.18;;;;;;;23.14;42.20;101854.72;5035751;28;20050;-86
2023/05/28 07:53:18;;;;;;;10.23;5.85;;;;;;;22.98;42.00;101858.78;5056895;28;20358;-88
2023/05/28 07:55:44;;;;;;;8.93;5.38;;;;;;;23.05;42.79;101850.97;5040411;28;20037;-86
2023/05/28 07:58:12;;;;;;;10.85;5.25;;;;;;;23.40;41.79;101850.53;5062036;28;20074;-88
2023/05/28 08:00:38;;;;;;;10.48;5.55;;;;;;;23.25;41.84;101849.22;5062542;28;20020;-87
2023/05/28 08:03:06;;;;;;;10.40;5.70;;;;;;;23.09;41.74;101852.41;5061270;28;20687;-87
2023/05/28 08:05:32;;;;;;;10.48;5.22;;;;;;;23.08;42.03;101856.13;5057992;28;20020;-85
2023/05/28 08:07:57;;;;;;;10.52;5.38;;;;;;;22.88;42.26;101858.69;5058760;28;20508;-86
2023/05/28 08:10:23;;;;;;;449.52;51.50;;;;;;;23.78;41.71;101851.69;5046451;28;20020;-85
2023/05/28 08:12:48;;;;;;;46.38;7.70;;;;;;;24.43;39.39;101846.63;5044045;28;20513;-88
2023/05/28 08:15:14;;;;;;;12.13;5.35;;;;;;;25.26;37.52;101853.22;5040916;28;20528;-87
2023/05/28 08:17:40;;;;;;;24.55;6.40;;;;;;;25.84;36.96;101850.22;5041266;28;20577;-87
2023/05/28 08:20:09;;;;;;;60.40;9.68;;;;;;;25.91;36.08;101854.03;5063393;28;20082;-86
2023/05/28 08:22:36;;;;;;;72.35;11.07;;;;;;;26.36;36.10;101842.22;5060377;28;20024;-87
2023/05/28 08:25:02;;;;;;;12.38;5.32;;;;;;;26.37;34.88;101843.06;5043481;28;20544;-87
2023/05/28 08:27:27;;;;;;;10.10;5.25;;;;;;;26.88;34.88;101847.78;5061970;28;20027;-86
2023/05/28 08:29:53;;;;;;;12.68;5.15;;;;;;;27.13;34.88;101832.44;5037404;28;20120;-86
2023/05/28 08:32:18;;;;;;;9.95;5.30;;;;;;;27.28;33.82;101841.72;5041085;28;20452;-85
2023/05/28 08:34:44;;;;;;;12.35;5.18;;;;;;;27.82;32.91;101840.59;5056618;28;20090;-86
2023/05/28 08:37:12;;;;;;;11.10;5.40;;;;;;;27.89;33.14;101831.56;5056886;28;20111;-87
2023/05/28 08:39:38;;;;;;;21.77;6.18;;;;;;;28.15;32.54;101831.41;5059510;28;20048;-87
2023/05/28 08:42:03;;;;;;;17.95;5.47;;;;;;;27.64;32.14;101827.88;5040025;28;20064;-85
2023/05/28 08:44:29;;;;;;;54.90;9.07;;;;;;;27.79;32.25;101834.41;5056929;28;20032;-87
2023/05/28 08:46:55;;;;;;;8.90;5.28;;;;;;;28.38;31.16;101836.25;5057192;28;20033;-87
2023/05/28 08:49:29;;;;;;;18.58;5.45;;;;;;;28.91;31.14;101832.09;5060015;28;20519;-87
2023/05/28 08:51:58;;;;;;;9.18;4.90;;;;;;;29.27;30.35;101838.03;5052671;28;20032;-86
2023/05/28 08:54:23;;;;;;;8.18;5.00;;;;;;;28.82;30.33;101828.50;5055456;28;20130;-86
2023/05/28 08:56:49;;;;;;;10.18;5.00;;;;;;;28.23;30.98;101811.41;5059798;28;20029;-85
2023/05/28 08:59:16;;;;;;;8.57;5.07;;;;;;;27.97;31.71;101817.03;5059467;28;20031;-86
2023/05/28 09:01:41;;;;;;;9.38;4.63;;;;;;;28.58;31.32;101812.97;5040364;28;20028;-87
2023/05/28 09:04:06;;;;;;;9.48;4.90;;;;;;;29.08;30.26;101822.81;5059308;28;20093;-86
2023/05/28 09:06:36;;;;;;;10.70;5.45;;;;;;;29.64;28.84;101829.16;5035747;28;20478;-85
2023/05/28 09:09:02;;;;;;;12.00;5.35;;;;;;;30.45;27.90;101799.44;5057554;28;20478;-85
2023/05/28 09:11:27;;;;;;;24.13;6.93;;;;;;;30.89;27.16;101809.66;5038594;28;20039;-85
2023/05/28 09:13:52;;;;;;;9.40;4.90;;;;;;;31.38;26.33;101809.97;5057338;28;20060;-85
2023/05/28 09:16:22;;;;;;;7.60;5.10;;;;;;;31.61;26.42;101817.25;5060766;28;20852;-85
2023/05/28 09:19:01;;;;;;;34.58;7.72;;;;;;;31.47;26.61;101811.56;5062987;28;20075;-86
2023/05/28 09:21:26;;;;;;;25.55;6.40;;;;;;;31.32;27.09;101813.50;5062522;28;20033;-83
2023/05/28 09:23:52;;;;;;;10.40;4.90;;;;;;;31.20;26.94;101812.25;5062302;28;20086;-86
2023/05/28 09:26:19;;;;;;;12.48;5.70;;;;;;;30.80;27.62;101803.41;5073743;28;20315;-85
2023/05/28 09:28:45;;;;;;;10.13;5.25;;;;;;;31.10;27.56;101809.78;5051205;28;20035;-85
2023/05/28 09:31:12;;;;;;;9.10;5.53;;;;;;;30.92;27.40;101812.88;5067340;28;20028;-85
2023/05/28 09:33:44;;;;;;;15.70;6.38;;;;;;;31.04;27.82;101824.28;5070321;28;20047;-85
2023/05/28 09:36:09;;;;;;;8.90;5.30;;;;;;;31.24;26.96;101822.66;5065507;28;20524;-86
2023/05/28 09:38:42;;;;;;;9.30;5.78;;;;;;;31.14;27.87;101832.22;5064166;28;20060;-84
2023/05/28 09:41:19;;;;;;;11.23;6.03;;;;;;;31.63;26.86;101818.75;5068105;28;20071;-86
2023/05/28 09:43:45;;;;;;;9.63;5.07;;;;;;;31.96;26.33;101826.56;5060478;28;20395;-85
2023/05/28 09:46:11;;;;;;;10.18;4.90;;;;;;;32.48;25.95;101814.38;5047765;28;20024;-86
2023/05/28 09:48:37;;;;;;;9.90;5.32;;;;;;;32.97;24.97;101807.97;5059238;28;20033;-85
2023/05/28 09:51:10;;;;;;;10.20;4.88;;;;;;;32.97;24.16;101814.34;5050412;28;20115;-87
2023/05/28 09:53:41;;;;;;;8.30;4.97;;;;;;;32.30;24.69;101806.56;5067077;28;20044;-88
2023/05/28 09:56:07;;;;;;;11.48;5.32;;;;;;;31.87;24.00;101822.22;5071742;28;20028;-86
2023/05/28 09:58:36;;;;;;;9.15;4.93;;;;;;;31.41;24.42;101811.50;5047612;28;20032;-86
2023/05/28 10:01:09;;;;;;;8.20;4.30;;;;;;;31.42;25.33;101808.53;5065750;28;20472;-86
2023/05/28 10:03:38;;;;;;;10.93;5.25;;;;;;;31.85;25.31;101802.28;5058096;28;20763;-86
2023/05/28 10:06:16;;;;;;;7.75;4.78;;;;;;;31.29;25.65;101800.13;5063266;28;20500;-85
2023/05/28 10:08:46;;;;;;;9.57;5.10;;;;;;;30.82;26.18;101814.22;5046557;28;20477;-85
2023/05/28 10:11:18;;;;;;;8.10;4.60;;;;;;;30.69;26.30;101812.09;5060208;28;20051;-88
2023/05/28 10:13:44;;;;;;;9.70;4.78;;;;;;;31.57;24.84;101811.28;5066374;28;20056;-86
2023/05/28 10:16:09;;;;;;;8.10;4.53;;;;;;;32.05;24.76;101802.50;5066446;28;20048;-88
2023/05/28 10:18:35;;;;;;;10.95;4.88;;;;;;;31.72;24.88;101811.22;5064041;28;20504;-88
2023/05/28 10:21:01;;;;;;;9.68;4.80;;;;;;;31.58;25.16;101818.47;5068569;28;20148;-87
2023/05/28 10:23:27;;;;;;;7.45;4.22;;;;;;;31.46;25.34;101809.84;5051334;28;20016;-89
2023/05/28 10:25:54;;;;;;;7.63;4.47;;;;;;;31.65;24.32;101811.16;5065957;28;20046;-85
2023/05/28 10:28:20;;;;;;;8.10;4.50;;;;;;;31.37;23.91;101804.66;5043474;28;21575;-88
2023/05/28 10:30:45;;;;;;;10.00;4.45;;;;;;;30.61;24.37;101804.78;5064719;28;20161;-87
2023/05/28 10:33:18;;;;;;;7.88;4.88;;;;;;;29.81;26.38;101805.22;5061779;28;20484;-87
2023/05/28 10:35:58;;;;;;;8.25;4.50;;;;;;;29.48;26.57;101816.34;5065565;28;20123;-88
2023/05/28 10:38:25;;;;;;;7.43;4.63;;;;;;;29.13;26.53;101817.66;5047870;28;20405;-88
2023/05/28 10:40:50;;;;;;;7.00;4.00;;;;;;;29.12;26.63;101817.84;5060148;28;20024;-87
2023/05/28 10:43:45;;;;;;;11.90;4.90;;;;;;;29.70;27.07;101822.09;5067562;28;20774;-87
2023/05/28 10:46:25;;;;;;;7.50;4.57;;;;;;;29.12;26.72;101818.69;5057291;28;20069;-87
2023/05/28 10:49:10;;;;;;;9.18;4.45;;;;;;;29.39;27.64;101830.28;5065117;28;20052;-88
2023/05/28 10:51:45;;;;;;;7.43;4.30;;;;;;;30.31;26.46;101824.94;5042817;28;20028;-88
2023/05/28 10:54:15;;;;;;;8.02;4.75;;;;;;;31.24;25.26;101821.81;5056132;28;20056;-87
2023/05/28 10:57:11;;;;;;;8.32;4.60;;;;;;;32.24;24.82;101818.38;5061001;28;20033;-89
2023/05/28 10:59:42;;;;;;;7.25;4.15;;;;;;;32.36;23.76;101821.47;5054913;28;20024;-87
2023/05/28 11:02:09;;;;;;;7.20;4.17;;;;;;;32.17;23.70;101829.31;5044955;28;20085;-87
2023/05/28 11:04:35;;;;;;;8.50;4.60;;;;;;;31.43;24.48;101820.38;5058778;28;20556;-88
2023/05/28 11:07:02;;;;;;;7.35;4.07;;;;;;;31.39;24.43;101813.56;5051384;28;20326;-88
2023/05/28 11:09:27;;;;;;;9.43;4.60;;;;;;;31.42;23.70;101816.78;5057863;28;20028;-88
2023/05/28 11:11:58;;;;;;;9.27;4.90;;;;;;;31.06;24.88;101811.22;5044668;28;20114;-86